CDT,Max TemperatureF,Mean TemperatureF,Min TemperatureF,Max Dew PointF,MeanDew PointF,Min DewpointF,Max Humidity, Mean Humidity, Min Humidity, Max Sea Level PressureIn, Mean Sea Level PressureIn, Min Sea Level PressureIn, Max VisibilityMiles, Mean VisibilityMiles, Min VisibilityMiles, Max Wind SpeedMPH, Mean Wind SpeedMPH, Max Gust SpeedMPH,PrecipitationIn, CloudCover, Events, WindDirDegrees
2011-10-1,73,54,34,37,34,28,82,53,27,30.33,30.25,30.18,10,10,10,17,9,22,0.00,0,,137
2011-10-2,82,61,40,41,38,35,82,51,20,30.22,30.16,30.09,10,10,10,17,9,22,0.00,0,,138
2011-10-3,83,63,43,42,39,36,82,52,22,30.18,30.13,30.08,10,10,10,21,10,29,0.00,0,,138
2011-10-4,90,70,50,49,45,39,72,48,23,30.11,30.03,29.96,10,10,10,18,10,23,0.00,0,,141
2011-10-5,86,69,51,48,44,38,77,49,21,30.05,29.99,29.93,10,10,10,24,11,32,0.00,0,,140
2011-10-6,82,67,51,50,44,39,66,49,32,29.96,29.89,29.80,10,10,10,35,16,44,T,1,Rain,148
2011-10-7,84,76,67,61,55,47,56,49,42,29.91,29.84,29.81,10,9,2,31,19,40,0.00,3,,170
2011-10-8,76,71,65,60,56,51,81,61,47,30.06,29.99,29.91,10,10,10,22,11,28,0.04,7,Rain-Thunderstorm,167
2011-10-9,82,69,56,60,55,47,94,65,35,30.14,30.06,29.98,10,10,6,25,10,32,T,4,Rain,152
2011-10-10,73,61,49,57,52,45,94,74,41,30.03,29.97,29.89,10,10,10,16,10,,0.07,4,Rain,181
2011-10-11,78,63,48,54,50,46,93,67,40,29.91,29.81,29.72,10,10,7,22,10,30,0.01,2,,144
2011-10-12,73,61,49,57,52,44,93,72,51,29.78,29.72,29.68,10,10,5,25,7,32,0.06,4,Rain-Thunderstorm,314
2011-10-13,72,59,45,42,37,30,82,53,23,29.84,29.80,29.74,10,10,10,32,12,40,0.00,0,,305
2011-10-14,64,52,39,38,33,26,73,49,25,30.04,29.93,29.83,10,10,10,31,14,39,0.00,0,,306
2011-10-15,71,52,33,36,32,28,82,52,22,30.06,29.92,29.75,10,10,10,21,5,28,T,1,,158
2011-10-16,63,49,34,39,33,24,82,54,28,30.08,30.00,29.79,10,10,10,24,11,32,0.00,0,,326
2011-10-17,60,44,28,36,29,25,78,54,28,30.06,30.03,30.00,10,10,10,23,7,29,T,3,Rain,312
2011-10-18,54,44,33,31,26,21,79,52,30,30.13,30.09,30.01,10,10,10,29,15,36,0.00,1,,337
2011-10-19,48,37,25,29,23,21,78,55,36,30.20,30.14,30.11,10,10,10,18,11,23,0.00,2,,348
2011-10-20,54,40,26,30,27,24,85,62,38,30.12,30.08,30.04,10,10,10,16,7,21,0.00,0,,319
2011-10-21,74,50,26,37,31,22,85,56,27,30.10,30.07,30.01,10,10,7,15,5,17,0.00,0,,258
2011-10-22,61,50,39,45,41,36,92,69,46,30.16,30.10,30.03,10,10,8,12,3,14,0.05,5,Rain,111
2011-10-23,77,57,37,46,38,32,100,63,25,30.02,29.94,29.83,10,8,2,25,6,31,T,1,Rain,112
2011-10-24,75,54,32,40,35,30,89,57,25,30.09,29.97,29.74,10,10,10,14,6,17,0.00,0,,125
2011-10-25,63,53,42,42,38,34,83,63,43,30.06,29.82,29.68,10,10,10,28,13,33,0.00,0,,13
2011-10-26,53,46,38,39,35,32,83,67,50,30.16,30.12,30.08,10,10,10,22,12,26,0.00,4,,328
2011-10-27,57,41,25,32,25,20,92,58,23,30.17,30.14,30.10,10,10,10,16,5,20,0.00,1,,286
2011-10-28,59,41,23,30,21,15,78,49,20,30.22,30.16,30.11,10,10,10,23,8,30,0.00,1,,313
2011-10-29,60,40,20,27,22,14,74,47,27,30.15,29.98,29.82,10,10,9,24,8,32,0.00,1,,132
2011-10-30,58,42,26,36,28,20,75,51,27,30.09,29.97,29.83,10,10,9,28,13,33,0.00,0,,311
2011-10-31,64,41,18,28,23,16,88,55,22,30.10,30.01,29.87,10,10,10,16,8,25,0.00,0,,138